createdAt,value
2018-12-20T00:00:36.475Z,0
2018-12-20T00:01:39.122Z,0
2018-12-20T00:02:42.031Z,0
2018-12-20T00:03:44.717Z,0
2018-12-20T00:04:47.254Z,0
2018-12-20T00:05:49.956Z,0
2018-12-20T00:06:52.504Z,0
2018-12-20T00:07:54.947Z,0
2018-12-20T00:08:57.046Z,0
2018-12-20T00:09:59.776Z,0
2018-12-20T00:11:02.285Z,0
2018-12-20T00:12:05.016Z,0
2018-12-20T00:13:07.707Z,0
2018-12-20T00:14:10.435Z,0
2018-12-20T00:15:13.199Z,0
2018-12-20T00:16:15.982Z,0
2018-12-20T00:17:18.669Z,0
2018-12-20T00:18:21.059Z,0
2018-12-20T00:19:23.682Z,0
2018-12-20T00:20:26.626Z,0
2018-12-20T00:21:29.507Z,0
2018-12-20T00:22:32.399Z,0
2018-12-20T00:23:34.639Z,0
2018-12-20T00:24:37.819Z,0
2018-12-20T00:25:40.888Z,0
2018-12-20T00:26:44.409Z,0
2018-12-20T00:27:46.824Z,0
2018-12-20T00:28:49.339Z,0
2018-12-20T00:29:51.978Z,0
2018-12-20T00:30:54.855Z,0
2018-12-20T00:31:57.459Z,0
2018-12-20T00:33:00.604Z,0
2018-12-20T00:34:03.471Z,0
2018-12-20T00:35:06.792Z,0
2018-12-20T00:36:10.593Z,0
2018-12-20T00:37:14.020Z,0
2018-12-20T00:38:16.765Z,0
2018-12-20T00:39:19.640Z,0
2018-12-20T00:40:22.524Z,0
2018-12-20T00:41:25.308Z,0
2018-12-20T00:42:27.883Z,0
2018-12-20T00:43:30.673Z,0
2018-12-20T00:44:38.796Z,0
2018-12-20T00:45:41.927Z,0
2018-12-20T00:46:44.978Z,0
2018-12-20T00:47:48.055Z,0
2018-12-20T00:48:50.812Z,0
2018-12-20T00:49:54.207Z,0
2018-12-20T00:50:57.089Z,0
2018-12-20T00:52:00.015Z,0
2018-12-20T00:53:03.093Z,0
2018-12-20T00:54:06.132Z,0
2018-12-20T00:55:08.851Z,0
2018-12-20T00:56:11.818Z,0
2018-12-20T00:57:14.437Z,0
2018-12-20T00:58:17.524Z,0
2018-12-20T00:59:20.254Z,0
2018-12-20T01:00:23.048Z,0
2018-12-20T01:01:26.240Z,0
2018-12-20T01:02:29.961Z,0
2018-12-20T01:03:32.835Z,0
2018-12-20T01:04:35.982Z,0
2018-12-20T01:05:39.038Z,0
2018-12-20T01:06:41.823Z,0
2018-12-20T01:07:45.485Z,0
2018-12-20T01:08:48.300Z,0
2018-12-20T01:09:51.467Z,0
2018-12-20T01:10:54.857Z,0
2018-12-20T01:11:57.912Z,0
2018-12-20T01:13:00.766Z,0
2018-12-20T01:14:03.780Z,0
2018-12-20T01:15:06.953Z,0
2018-12-20T01:16:10.046Z,0
2018-12-20T01:17:13.813Z,0
2018-12-20T01:18:17.156Z,0
2018-12-20T01:19:20.979Z,0
2018-12-20T01:20:24.272Z,0
2018-12-20T01:21:27.606Z,0
2018-12-20T01:22:30.258Z,0
2018-12-20T01:23:33.297Z,0
2018-12-20T01:24:36.203Z,0
2018-12-20T01:25:39.093Z,0
2018-12-20T01:26:42.176Z,0
2018-12-20T01:27:45.248Z,0
2018-12-20T01:28:47.818Z,0
2018-12-20T01:29:50.707Z,0
2018-12-20T01:30:53.986Z,0
2018-12-20T01:31:57.243Z,0
2018-12-20T01:33:00.541Z,0
2018-12-20T01:34:03.602Z,0
2018-12-20T01:35:06.821Z,0
2018-12-20T01:36:09.684Z,0
2018-12-20T01:37:12.491Z,0
2018-12-20T01:38:16.043Z,0
2018-12-20T01:39:19.666Z,0
2018-12-20T01:40:22.804Z,0
2018-12-20T01:41:25.673Z,0
2018-12-20T01:42:28.948Z,0
2018-12-20T01:43:32.019Z,0
2018-12-20T01:44:34.771Z,0
2018-12-20T01:45:37.781Z,0
2018-12-20T01:46:41.174Z,0
2018-12-20T01:47:43.925Z,0
2018-12-20T01:48:47.140Z,0
2018-12-20T01:49:50.269Z,0
2018-12-20T01:50:52.950Z,0
2018-12-20T01:51:56.548Z,0
2018-12-20T01:53:00.424Z,0
2018-12-20T01:54:03.771Z,0
2018-12-20T01:55:07.301Z,0
2018-12-20T01:56:10.267Z,0
2018-12-20T01:57:13.459Z,0
2018-12-20T01:58:15.562Z,0
2018-12-20T01:59:18.965Z,0
2018-12-20T02:00:22.320Z,0
2018-12-20T02:01:25.731Z,0
2018-12-20T02:02:28.833Z,0
2018-12-20T02:03:31.940Z,0
2018-12-20T02:04:35.161Z,0
2018-12-20T02:05:38.319Z,0
2018-12-20T02:06:41.633Z,0
2018-12-20T02:07:45.215Z,0
2018-12-20T02:08:48.405Z,0
2018-12-20T02:09:51.191Z,0
2018-12-20T02:10:54.196Z,0
2018-12-20T02:11:57.201Z,0
2018-12-20T02:13:00.568Z,0
2018-12-20T02:14:03.526Z,0
2018-12-20T02:15:07.229Z,0
2018-12-20T02:16:10.139Z,0
2018-12-20T02:17:13.376Z,0
2018-12-20T02:18:16.380Z,0
2018-12-20T02:19:18.984Z,0
2018-12-20T02:20:22.111Z,0
2018-12-20T02:21:25.369Z,0
2018-12-20T02:22:28.189Z,0
2018-12-20T02:23:31.286Z,0
2018-12-20T02:24:34.142Z,0
2018-12-20T02:25:36.819Z,0
2018-12-20T02:26:39.995Z,0
2018-12-20T02:27:43.317Z,0
2018-12-20T02:28:46.608Z,0
2018-12-20T02:29:49.873Z,0
2018-12-20T02:30:53.482Z,0
2018-12-20T02:31:55.786Z,0
2018-12-20T02:32:59.014Z,0
2018-12-20T02:34:02.618Z,0
2018-12-20T02:35:06.221Z,0
2018-12-20T02:36:09.790Z,0
2018-12-20T02:37:13.343Z,0
2018-12-20T02:38:17.051Z,0
2018-12-20T02:39:20.144Z,0
2018-12-20T02:40:23.462Z,0
2018-12-20T02:41:26.865Z,0
2018-12-20T02:42:29.703Z,0
2018-12-20T02:43:32.863Z,0
2018-12-20T02:44:36.007Z,0
2018-12-20T02:45:39.218Z,0
2018-12-20T02:46:42.761Z,0
2018-12-20T02:47:45.946Z,0
2018-12-20T02:48:49.483Z,0
2018-12-20T02:49:52.163Z,0
2018-12-20T02:50:55.692Z,0
2018-12-20T02:51:58.733Z,0
2018-12-20T02:53:01.820Z,0
2018-12-20T02:54:05.107Z,0
2018-12-20T02:55:08.769Z,0
2018-12-20T02:56:10.919Z,0
2018-12-20T02:57:14.078Z,0
2018-12-20T02:58:17.514Z,0
2018-12-20T02:59:21.150Z,0
2018-12-20T03:00:24.659Z,0
2018-12-20T03:01:27.375Z,0
2018-12-20T03:02:31.493Z,0
2018-12-20T03:03:33.648Z,0
2018-12-20T03:04:36.611Z,0
2018-12-20T03:05:40.241Z,0
2018-12-20T03:06:42.386Z,0
2018-12-20T03:07:45.739Z,0
2018-12-20T03:08:48.048Z,0
2018-12-20T03:09:51.449Z,0
2018-12-20T03:10:53.592Z,0
2018-12-20T03:11:56.591Z,0
2018-12-20T03:12:59.717Z,0
2018-12-20T03:14:03.427Z,0
2018-12-20T03:15:06.884Z,0
2018-12-20T03:16:10.593Z,0
2018-12-20T03:17:13.216Z,0
2018-12-20T03:18:16.739Z,0
2018-12-20T03:19:19.680Z,0
2018-12-20T03:20:22.721Z,0
2018-12-20T03:21:26.324Z,0
2018-12-20T03:22:30.025Z,0
2018-12-20T03:23:33.479Z,0
2018-12-20T03:24:36.669Z,0
2018-12-20T03:25:40.174Z,0
2018-12-20T03:26:43.728Z,0
2018-12-20T03:27:47.174Z,0
2018-12-20T03:28:50.407Z,0
2018-12-20T03:29:53.769Z,0
2018-12-20T03:30:58.354Z,0
2018-12-20T03:32:02.631Z,0
2018-12-20T03:33:06.451Z,0
2018-12-20T03:34:09.271Z,0
2018-12-20T03:35:12.703Z,0
2018-12-20T03:36:15.976Z,0
2018-12-20T03:37:19.314Z,0
2018-12-20T03:38:22.658Z,0
2018-12-20T03:39:25.635Z,0
2018-12-20T03:40:27.749Z,0
2018-12-20T03:41:31.294Z,0
2018-12-20T03:42:34.352Z,0
2018-12-20T03:43:37.958Z,0
2018-12-20T03:44:41.730Z,0
2018-12-20T03:45:44.883Z,0
2018-12-20T03:46:48.296Z,0
2018-12-20T03:47:51.885Z,0
2018-12-20T03:48:54.812Z,0
2018-12-20T03:49:58.529Z,0
2018-12-20T03:51:02.135Z,0
2018-12-20T03:52:06.134Z,0
2018-12-20T03:53:09.714Z,0
2018-12-20T03:54:13.547Z,0
2018-12-20T03:55:16.931Z,0
2018-12-20T03:56:20.610Z,0
2018-12-20T03:57:23.798Z,0
2018-12-20T03:58:27.582Z,0
2018-12-20T03:59:30.149Z,0
2018-12-20T04:00:33.236Z,0
2018-12-20T04:01:36.993Z,0
2018-12-20T04:02:40.721Z,0
2018-12-20T04:03:43.992Z,0
2018-12-20T04:04:47.391Z,0
2018-12-20T04:05:50.506Z,0
2018-12-20T04:06:53.558Z,0
2018-12-20T04:07:56.595Z,0
2018-12-20T04:08:59.601Z,0
2018-12-20T04:10:03.273Z,0
2018-12-20T04:11:05.976Z,0
2018-12-20T04:12:08.389Z,0
2018-12-20T04:13:11.041Z,0
2018-12-20T04:14:14.677Z,0
2018-12-20T04:15:18.569Z,0
2018-12-20T04:16:21.783Z,0
2018-12-20T04:17:24.926Z,0
2018-12-20T04:18:28.690Z,0
2018-12-20T04:19:32.143Z,0
2018-12-20T04:20:35.594Z,0
2018-12-20T04:21:38.866Z,0
2018-12-20T04:22:42.365Z,0
2018-12-20T04:23:46.122Z,0
2018-12-20T04:24:49.939Z,0
2018-12-20T04:25:53.584Z,0
2018-12-20T04:26:55.986Z,0
2018-12-20T04:28:00.092Z,0
2018-12-20T04:29:02.242Z,0
2018-12-20T04:30:06.809Z,0
2018-12-20T04:31:10.798Z,0
2018-12-20T04:32:14.193Z,0
2018-12-20T04:33:17.537Z,0
2018-12-20T04:34:21.163Z,0
2018-12-20T04:35:23.818Z,0
2018-12-20T04:36:27.715Z,0
2018-12-20T04:37:31.172Z,0
2018-12-20T04:38:34.156Z,0
2018-12-20T04:39:37.357Z,0
2018-12-20T04:40:40.960Z,0
2018-12-20T04:41:43.111Z,0
2018-12-20T04:42:46.615Z,0
2018-12-20T04:43:50.196Z,0
2018-12-20T04:44:53.410Z,0
2018-12-20T04:45:57.192Z,0
2018-12-20T04:47:02.702Z,0
2018-12-20T04:48:06.558Z,0
2018-12-20T04:49:10.278Z,0
2018-12-20T04:50:14.089Z,0
2018-12-20T04:51:17.377Z,0
2018-12-20T04:52:21.125Z,0
2018-12-20T04:53:24.356Z,0
2018-12-20T04:54:28.578Z,0
2018-12-20T04:55:31.395Z,0
2018-12-20T04:56:34.564Z,0
2018-12-20T04:57:38.478Z,0
2018-12-20T04:58:41.734Z,0
2018-12-20T04:59:44.825Z,0
2018-12-20T05:00:49.001Z,0
2018-12-20T05:01:53.173Z,0
2018-12-20T05:02:57.347Z,0
2018-12-20T05:04:00.863Z,0
2018-12-20T05:05:03.859Z,0
2018-12-20T05:06:06.068Z,0
2018-12-20T05:07:08.948Z,0
2018-12-20T05:08:12.732Z,0
2018-12-20T05:09:16.492Z,0
2018-12-20T05:10:19.834Z,0
2018-12-20T05:11:23.455Z,0
2018-12-20T05:12:27.267Z,0
2018-12-20T05:13:31.181Z,0
2018-12-20T05:14:35.016Z,0
2018-12-20T05:15:37.176Z,0
2018-12-20T05:16:40.223Z,0
2018-12-20T05:17:44.034Z,0
2018-12-20T05:18:47.830Z,0
2018-12-20T05:19:52.141Z,0
2018-12-20T05:20:56.145Z,0
2018-12-20T05:21:59.806Z,0
2018-12-20T05:23:01.934Z,0
2018-12-20T05:24:04.038Z,0
2018-12-20T05:25:08.152Z,0
2018-12-20T05:26:11.800Z,0
2018-12-20T05:27:15.253Z,0
2018-12-20T05:28:19.377Z,0
2018-12-20T05:29:22.514Z,0
2018-12-20T05:30:24.655Z,0
2018-12-20T05:31:26.771Z,0
2018-12-20T05:32:30.390Z,0
2018-12-20T05:33:33.857Z,0
2018-12-20T05:34:36.275Z,0
2018-12-20T05:35:39.393Z,0
2018-12-20T05:36:42.888Z,0
2018-12-20T05:37:45.962Z,0
2018-12-20T05:38:48.379Z,0
2018-12-20T05:39:51.298Z,0
2018-12-20T05:40:55.157Z,0
2018-12-20T05:41:58.629Z,0
2018-12-20T05:43:02.729Z,0
2018-12-20T05:44:06.303Z,0
2018-12-20T05:45:09.573Z,0
2018-12-20T05:46:13.091Z,0
2018-12-20T05:47:16.966Z,0
2018-12-20T05:48:20.496Z,0
2018-12-20T05:49:22.620Z,0
2018-12-20T05:50:25.902Z,0
2018-12-20T05:51:29.033Z,0
2018-12-20T05:52:32.162Z,0
2018-12-20T05:53:34.933Z,0
2018-12-20T05:54:38.038Z,0
2018-12-20T05:55:40.951Z,0
2018-12-20T05:56:44.386Z,0
2018-12-20T05:57:47.923Z,0
2018-12-20T05:58:51.071Z,0
2018-12-20T05:59:54.162Z,0
2018-12-20T06:00:57.570Z,0
2018-12-20T06:02:01.128Z,0
2018-12-20T06:03:04.340Z,0
2018-12-20T06:04:07.738Z,0
2018-12-20T06:05:11.524Z,0
2018-12-20T06:06:14.902Z,0
2018-12-20T06:07:17.409Z,0
2018-12-20T06:08:20.826Z,0
2018-12-20T06:09:24.276Z,0
2018-12-20T06:10:28.168Z,0
2018-12-20T06:11:30.584Z,0
2018-12-20T06:12:33.989Z,0
2018-12-20T06:13:38.001Z,0
2018-12-20T06:14:41.648Z,0
2018-12-20T06:15:44.402Z,0
2018-12-20T06:16:46.736Z,0
2018-12-20T06:17:50.923Z,0
2018-12-20T06:18:54.474Z,0
2018-12-20T06:19:57.665Z,0
2018-12-20T06:21:00.396Z,0
2018-12-20T06:22:03.199Z,0
2018-12-20T06:23:05.499Z,0
2018-12-20T06:24:07.718Z,0
2018-12-20T06:25:09.849Z,0
2018-12-20T06:26:11.969Z,0
2018-12-20T06:27:14.061Z,0
2018-12-20T06:28:16.765Z,0
2018-12-20T06:29:18.874Z,0
2018-12-20T06:30:20.974Z,0
2018-12-20T06:31:23.104Z,0
2018-12-20T06:32:25.484Z,0
2018-12-20T06:33:28.170Z,0
2018-12-20T06:34:30.293Z,0
2018-12-20T06:35:32.400Z,0
2018-12-20T06:36:34.510Z,0
2018-12-20T06:37:36.628Z,0
2018-12-20T06:38:39.008Z,0
2018-12-20T06:39:41.171Z,0
2018-12-20T06:40:43.300Z,0
2018-12-20T06:41:45.408Z,0
2018-12-20T06:42:47.511Z,0
2018-12-20T06:43:49.641Z,0
2018-12-20T06:44:51.745Z,0
2018-12-20T06:45:54.433Z,0
2018-12-20T06:46:56.542Z,0
2018-12-20T06:47:58.958Z,0
2018-12-20T06:49:01.067Z,0
2018-12-20T06:50:03.197Z,0
2018-12-20T06:51:05.312Z,0
2018-12-20T06:52:07.832Z,0
2018-12-20T06:53:09.928Z,0
2018-12-20T06:54:12.342Z,0
2018-12-20T06:55:14.468Z,0
2018-12-20T06:56:16.563Z,0
2018-12-20T06:57:18.686Z,0
2018-12-20T06:58:21.309Z,0
2018-12-20T06:59:23.491Z,0
2018-12-20T07:00:25.969Z,0
2018-12-20T07:01:28.085Z,0
2018-12-20T07:02:30.495Z,0
2018-12-20T07:03:32.600Z,0
2018-12-20T07:04:34.734Z,0
2018-12-20T07:05:36.834Z,0
2018-12-20T07:06:38.948Z,0
2018-12-20T07:07:41.090Z,0
2018-12-20T07:08:43.206Z,0
2018-12-20T07:09:45.313Z,0
2018-12-20T07:10:47.427Z,0
2018-12-20T07:11:49.527Z,0
2018-12-20T07:12:51.633Z,0
2018-12-20T07:13:53.759Z,0
2018-12-20T07:14:55.871Z,0
2018-12-20T07:15:57.975Z,0
2018-12-20T07:17:00.102Z,0
2018-12-20T07:18:02.206Z,0
2018-12-20T07:19:04.316Z,0
2018-12-20T07:20:06.438Z,0
2018-12-20T07:21:08.915Z,0
2018-12-20T07:22:11.314Z,0
2018-12-20T07:23:13.444Z,0
2018-12-20T07:24:15.994Z,0
2018-12-20T07:25:18.135Z,0
2018-12-20T07:26:20.520Z,0
2018-12-20T07:27:22.629Z,0
2018-12-20T07:28:24.749Z,0
2018-12-20T07:29:26.895Z,0
2018-12-20T07:30:29.015Z,1
2018-12-20T07:31:31.138Z,1
2018-12-20T07:32:33.258Z,1
2018-12-20T07:33:35.352Z,1
2018-12-20T07:34:37.483Z,1
2018-12-20T07:35:39.597Z,1
2018-12-20T07:36:41.989Z,1
2018-12-20T07:37:44.114Z,1
2018-12-20T07:38:46.600Z,1
2018-12-20T07:39:48.762Z,1
2018-12-20T07:40:50.896Z,1
2018-12-20T07:41:53.400Z,2
2018-12-20T07:42:55.507Z,2
2018-12-20T07:43:57.628Z,2
2018-12-20T07:44:59.828Z,2
2018-12-20T07:46:01.937Z,2
2018-12-20T07:47:04.054Z,2
2018-12-20T07:48:06.199Z,2
2018-12-20T07:49:08.605Z,2
2018-12-20T07:50:10.733Z,1
2018-12-20T07:51:12.852Z,1
2018-12-20T07:52:14.955Z,1
2018-12-20T07:53:17.079Z,2
2018-12-20T07:54:19.172Z,2
2018-12-20T07:55:21.575Z,2
2018-12-20T07:56:23.680Z,2
2018-12-20T07:57:26.306Z,2
2018-12-20T07:58:28.400Z,2
2018-12-20T07:59:30.524Z,2
2018-12-20T08:00:32.677Z,2
2018-12-20T08:01:34.831Z,2
2018-12-20T08:02:36.967Z,2
2018-12-20T08:03:39.068Z,2
2018-12-20T08:04:41.185Z,2
2018-12-20T08:05:43.303Z,2
2018-12-20T08:06:45.440Z,2
2018-12-20T08:07:47.534Z,2
2018-12-20T08:08:49.647Z,2
2018-12-20T08:09:51.766Z,2
2018-12-20T08:10:53.869Z,2
2018-12-20T08:11:56.682Z,2
2018-12-20T08:12:59.072Z,2
2018-12-20T08:14:01.279Z,2
2018-12-20T08:15:03.409Z,3
2018-12-20T08:16:05.535Z,3
2018-12-20T08:17:07.655Z,3
2018-12-20T08:18:09.782Z,3
2018-12-20T08:19:11.897Z,3
2018-12-20T08:20:14.012Z,3
2018-12-20T08:21:16.127Z,3
2018-12-20T08:22:18.927Z,3
2018-12-20T08:23:21.026Z,3
2018-12-20T08:24:23.437Z,3
2018-12-20T08:25:25.948Z,3
2018-12-20T08:26:28.045Z,3
2018-12-20T08:27:30.175Z,3
2018-12-20T08:28:32.362Z,3
2018-12-20T08:29:34.471Z,3
2018-12-20T08:30:36.668Z,3
2018-12-20T08:31:38.798Z,4
2018-12-20T08:32:41.565Z,4
2018-12-20T08:33:43.690Z,4
2018-12-20T08:34:46.199Z,5
2018-12-20T08:35:48.295Z,5
2018-12-20T08:36:50.419Z,5
2018-12-20T08:37:52.838Z,5
2018-12-20T08:38:54.958Z,4
2018-12-20T08:39:57.062Z,4
2018-12-20T08:40:59.575Z,5
2018-12-20T08:42:01.986Z,5
2018-12-20T08:43:04.791Z,4
2018-12-20T08:44:06.885Z,4
2018-12-20T08:45:09.127Z,4
2018-12-20T08:46:11.245Z,4
2018-12-20T08:47:13.355Z,3
2018-12-20T08:48:15.465Z,3
2018-12-20T08:49:17.591Z,3
2018-12-20T08:50:19.699Z,3
2018-12-20T08:51:22.109Z,2
2018-12-20T08:52:24.217Z,2
2018-12-20T08:53:26.316Z,3
2018-12-20T08:54:28.433Z,3
2018-12-20T08:55:30.557Z,3
2018-12-20T08:56:32.655Z,4
2018-12-20T08:57:34.774Z,4
2018-12-20T08:58:36.901Z,4
2018-12-20T08:59:39.011Z,5
2018-12-20T09:00:41.235Z,5
2018-12-20T09:01:43.340Z,5
2018-12-20T09:02:45.451Z,6
2018-12-20T09:03:47.550Z,6
2018-12-20T09:04:49.684Z,6
2018-12-20T09:05:52.127Z,6
2018-12-20T09:06:54.243Z,7
2018-12-20T09:07:56.477Z,8
2018-12-20T09:08:58.573Z,8
2018-12-20T09:10:00.700Z,9
2018-12-20T09:11:02.811Z,9
2018-12-20T09:12:05.404Z,10
2018-12-20T09:13:11.611Z,11
2018-12-20T09:14:13.736Z,11
2018-12-20T09:15:15.943Z,10
2018-12-20T09:16:18.346Z,10
2018-12-20T09:17:20.473Z,9
2018-12-20T09:18:22.864Z,9
2018-12-20T09:19:24.970Z,9
2018-12-20T09:20:34.247Z,10
2018-12-20T09:21:36.358Z,10
2018-12-20T09:22:38.488Z,10
2018-12-20T09:23:40.603Z,9
2018-12-20T09:24:43.005Z,9
2018-12-20T09:25:45.416Z,8
2018-12-20T09:26:47.904Z,9
2018-12-20T09:27:50.008Z,9
2018-12-20T09:28:54.410Z,10
2018-12-20T09:29:56.504Z,11
2018-12-20T09:30:58.640Z,11
2018-12-20T09:32:00.967Z,12
2018-12-20T09:33:03.064Z,12
2018-12-20T09:34:05.192Z,12
2018-12-20T09:35:07.300Z,11
2018-12-20T09:36:09.416Z,11
2018-12-20T09:37:11.517Z,11
2018-12-20T09:38:13.728Z,10
2018-12-20T09:39:15.840Z,9
2018-12-20T09:40:17.955Z,9
2018-12-20T09:41:20.079Z,9
2018-12-20T09:42:22.456Z,10
2018-12-20T09:43:26.305Z,10
2018-12-20T09:44:28.425Z,11
2018-12-20T09:45:30.592Z,12
2018-12-20T09:46:33.089Z,13
2018-12-20T09:47:35.229Z,13
2018-12-20T09:48:37.340Z,13
2018-12-20T09:49:39.514Z,14
2018-12-20T09:50:41.940Z,14
2018-12-20T09:51:44.331Z,14
2018-12-20T09:52:46.540Z,14
2018-12-20T09:53:48.956Z,14
2018-12-20T09:54:51.072Z,14
2018-12-20T09:55:53.297Z,14
2018-12-20T09:56:55.471Z,14
2018-12-20T09:57:57.598Z,14
2018-12-20T09:58:59.768Z,14
2018-12-20T10:00:02.234Z,14
2018-12-20T10:01:04.353Z,14
2018-12-20T10:02:06.489Z,14
2018-12-20T10:03:08.586Z,13
2018-12-20T10:04:10.711Z,13
2018-12-20T10:05:12.837Z,13
2018-12-20T10:06:15.013Z,13
2018-12-20T10:07:17.529Z,14
2018-12-20T10:08:19.916Z,13
2018-12-20T10:09:22.044Z,13
2018-12-20T10:10:24.361Z,13
2018-12-20T10:11:26.490Z,13
2018-12-20T10:12:28.594Z,13
2018-12-20T10:13:30.711Z,13
2018-12-20T10:14:32.840Z,14
2018-12-20T10:15:37.638Z,15
2018-12-20T10:16:39.767Z,17
2018-12-20T10:17:41.888Z,19
2018-12-20T10:18:44.011Z,20
2018-12-20T10:19:46.114Z,22
2018-12-20T10:20:48.255Z,23
2018-12-20T10:21:50.362Z,23
2018-12-20T10:22:52.471Z,24
2018-12-20T10:23:54.991Z,25
2018-12-20T10:24:57.392Z,25
2018-12-20T10:25:59.507Z,24
2018-12-20T10:27:01.754Z,24
2018-12-20T10:28:03.868Z,24
2018-12-20T10:29:06.257Z,22
2018-12-20T10:30:08.385Z,21
2018-12-20T10:31:10.575Z,22
2018-12-20T10:32:12.694Z,23
2018-12-20T10:33:15.104Z,25
2018-12-20T10:34:17.218Z,26
2018-12-20T10:35:19.605Z,26
2018-12-20T10:36:21.790Z,26
2018-12-20T10:37:23.908Z,28
2018-12-20T10:38:26.026Z,32
2018-12-20T10:39:28.156Z,42
2018-12-20T10:40:30.259Z,46
2018-12-20T10:41:32.387Z,48
2018-12-20T10:50:56.173Z,31
2018-12-20T10:51:58.302Z,27
2018-12-20T10:53:00.803Z,23
2018-12-20T10:54:02.937Z,23
2018-12-20T10:55:05.112Z,27
2018-12-20T10:56:07.223Z,29
2018-12-20T10:57:09.353Z,30
2018-12-20T10:58:11.846Z,34
2018-12-20T10:59:14.067Z,39
2018-12-20T11:00:16.181Z,42
2018-12-20T11:01:18.600Z,49
2018-12-20T11:02:20.709Z,52
2018-12-20T11:03:23.106Z,59
2018-12-20T11:04:25.277Z,50
2018-12-20T11:05:27.384Z,46
2018-12-20T11:06:29.579Z,41
2018-12-20T11:07:32.272Z,37
2018-12-20T11:08:34.674Z,33
2018-12-20T11:09:36.853Z,31
2018-12-20T11:10:38.977Z,31
2018-12-20T11:11:41.095Z,32
2018-12-20T11:12:43.216Z,33
2018-12-20T11:13:45.342Z,32
2018-12-20T11:14:47.603Z,32
2018-12-20T11:15:49.722Z,30
2018-12-20T11:16:51.851Z,27
2018-12-20T11:17:53.954Z,27
2018-12-20T11:18:56.191Z,26
2018-12-20T11:19:58.321Z,27
2018-12-20T11:21:00.440Z,28
2018-12-20T11:22:02.545Z,27
2018-12-20T11:23:04.663Z,26
2018-12-20T11:24:07.442Z,26
2018-12-20T11:25:09.665Z,26
2018-12-20T11:26:11.876Z,25
2018-12-20T11:27:14.290Z,24
2018-12-20T11:28:16.410Z,25
2018-12-20T11:29:18.559Z,25
2018-12-20T11:30:20.690Z,26
2018-12-20T11:31:22.805Z,26
2018-12-20T11:32:24.951Z,25
2018-12-20T11:33:27.093Z,23
2018-12-20T11:34:29.234Z,23
2018-12-20T11:35:31.626Z,25
2018-12-20T11:36:33.746Z,25
2018-12-20T11:37:36.258Z,25
2018-12-20T11:38:38.363Z,25
2018-12-20T11:39:40.490Z,25
2018-12-20T11:40:42.620Z,24
2018-12-20T11:41:44.770Z,23
2018-12-20T11:42:46.881Z,22
2018-12-20T11:43:49.025Z,22
2018-12-20T11:44:51.426Z,23
2018-12-20T11:45:53.880Z,25
2018-12-20T11:46:55.998Z,25
2018-12-20T11:47:58.108Z,25
2018-12-20T11:49:00.231Z,25
2018-12-20T11:50:02.665Z,24
2018-12-20T11:51:04.761Z,25
2018-12-20T11:52:06.899Z,28
2018-12-20T11:53:09.023Z,30
2018-12-20T11:54:11.128Z,30
2018-12-20T11:55:13.276Z,32
2018-12-20T11:56:15.383Z,34
2018-12-20T11:57:17.501Z,35
2018-12-20T11:58:19.606Z,36
2018-12-20T11:59:22.004Z,36
2018-12-20T12:00:24.128Z,36
2018-12-20T12:01:26.244Z,36
2018-12-20T12:02:28.632Z,51
2018-12-20T12:03:30.761Z,41
2018-12-20T12:04:32.866Z,44
2018-12-20T12:05:35.296Z,45
2018-12-20T12:06:37.773Z,43
2018-12-20T12:07:39.905Z,42
2018-12-20T12:08:42.014Z,39
2018-12-20T12:09:44.134Z,35
2018-12-20T12:10:46.255Z,34
2018-12-20T12:11:48.355Z,32
2018-12-20T12:12:50.481Z,30
2018-12-20T12:13:52.904Z,29
2018-12-20T12:14:55.013Z,28
2018-12-20T12:15:57.423Z,28
2018-12-20T12:16:59.565Z,29
2018-12-20T12:18:01.675Z,31
2018-12-20T12:19:03.796Z,34
2018-12-20T12:20:05.912Z,35
2018-12-20T12:21:08.024Z,35
2018-12-20T12:22:10.143Z,35
2018-12-20T12:23:12.572Z,35
2018-12-20T12:24:14.984Z,33
2018-12-20T12:25:17.112Z,33
2018-12-20T12:26:19.241Z,32
2018-12-20T12:27:21.341Z,32
2018-12-20T12:28:23.765Z,35
2018-12-20T12:29:25.934Z,41
2018-12-20T12:30:28.048Z,44
2018-12-20T12:31:30.167Z,39
2018-12-20T12:32:32.301Z,37
2018-12-20T12:33:34.416Z,41
2018-12-20T12:34:36.542Z,45
2018-12-20T12:35:38.675Z,48
2018-12-20T12:36:40.878Z,44
2018-12-20T12:37:42.985Z,48
2018-12-20T12:38:45.104Z,50
2018-12-20T12:39:47.219Z,47
2018-12-20T12:40:49.760Z,41
2018-12-20T12:41:51.875Z,39
2018-12-20T12:42:54.029Z,38
2018-12-20T12:43:56.168Z,38
2018-12-20T12:44:58.380Z,38
2018-12-20T12:46:00.537Z,37
2018-12-20T12:47:02.659Z,36
2018-12-20T12:48:05.418Z,33
2018-12-20T12:49:07.543Z,31
2018-12-20T12:50:09.672Z,30
2018-12-20T12:51:11.792Z,29
2018-12-20T12:52:13.919Z,28
2018-12-20T12:53:16.042Z,27
2018-12-20T12:54:18.147Z,26
2018-12-20T12:55:20.266Z,25
2018-12-20T12:56:22.406Z,25
2018-12-20T12:57:24.517Z,25
2018-12-20T12:58:26.712Z,25
2018-12-20T12:59:28.834Z,25
2018-12-20T13:00:30.941Z,25
2018-12-20T13:01:33.075Z,26
2018-12-20T13:02:35.197Z,25
2018-12-20T13:03:37.426Z,23
2018-12-20T13:04:39.531Z,23
2018-12-20T13:05:41.669Z,22
2018-12-20T13:06:43.808Z,21
2018-12-20T13:07:46.218Z,19
2018-12-20T13:08:48.349Z,18
2018-12-20T13:09:50.736Z,18
2018-12-20T13:10:52.864Z,17
2018-12-20T13:11:54.980Z,17
2018-12-20T13:12:57.208Z,17
2018-12-20T13:13:59.321Z,15
2018-12-20T13:15:01.455Z,14
2018-12-20T13:16:03.880Z,13
2018-12-20T13:17:06.075Z,13
2018-12-20T13:18:15.355Z,13
2018-12-20T13:19:17.460Z,14
2018-12-20T13:20:19.585Z,14
2018-12-20T13:21:21.722Z,15
2018-12-20T13:22:23.841Z,15
2018-12-20T13:23:27.072Z,15
2018-12-20T13:24:29.208Z,14
2018-12-20T13:25:31.605Z,14
2018-12-20T13:26:33.720Z,14
2018-12-20T13:27:35.847Z,14
2018-12-20T13:28:38.258Z,14
2018-12-20T13:29:40.367Z,13
2018-12-20T13:30:42.506Z,13
2018-12-20T13:31:44.913Z,12
2018-12-20T13:32:47.029Z,12
2018-12-20T13:33:49.462Z,12
2018-12-20T13:34:51.623Z,11
2018-12-20T13:35:53.753Z,10
2018-12-20T13:36:55.886Z,11
2018-12-20T13:37:58.025Z,11
2018-12-20T13:39:00.133Z,11
2018-12-20T13:40:02.291Z,10
2018-12-20T13:41:04.701Z,9
2018-12-20T13:42:06.806Z,9
2018-12-20T13:43:08.990Z,9
2018-12-20T13:44:11.097Z,9
2018-12-20T13:45:13.595Z,9
2018-12-20T13:46:15.732Z,8
2018-12-20T13:47:19.987Z,8
2018-12-20T13:48:24.115Z,6
2018-12-20T13:49:26.639Z,6
2018-12-20T13:50:28.770Z,5
2018-12-20T13:51:30.873Z,5
2018-12-20T13:52:32.995Z,5
2018-12-20T13:53:35.174Z,5
2018-12-20T13:54:37.591Z,5
2018-12-20T13:55:39.708Z,5
2018-12-20T13:56:41.818Z,6
2018-12-20T13:57:43.938Z,6
2018-12-20T13:58:46.045Z,5
2018-12-20T13:59:48.165Z,5
2018-12-20T14:00:50.678Z,5
2018-12-20T14:01:53.180Z,4
2018-12-20T14:02:55.288Z,4
2018-12-20T14:03:58.553Z,4
2018-12-20T14:05:00.664Z,4
2018-12-20T14:06:02.884Z,4
2018-12-20T14:07:05.305Z,4
2018-12-20T14:08:07.416Z,4
2018-12-20T14:09:09.609Z,4
2018-12-20T14:10:11.752Z,5
2018-12-20T14:11:14.169Z,4
2018-12-20T14:12:16.272Z,4
2018-12-20T14:13:18.393Z,4
2018-12-20T14:14:20.512Z,4
2018-12-20T14:15:22.616Z,4
2018-12-20T14:16:24.748Z,3
2018-12-20T14:17:26.853Z,3
2018-12-20T14:18:32.831Z,2
2018-12-20T14:19:34.944Z,2
2018-12-20T14:20:37.362Z,1
2018-12-20T14:21:39.579Z,1
2018-12-20T14:22:41.696Z,1
2018-12-20T14:23:43.899Z,1
2018-12-20T14:24:45.995Z,1
2018-12-20T14:25:48.122Z,1
2018-12-20T14:26:50.249Z,1
2018-12-20T14:27:53.050Z,1
2018-12-20T14:28:55.159Z,1
2018-12-20T14:29:57.586Z,1
2018-12-20T14:30:59.707Z,1
2018-12-20T14:32:01.816Z,1
2018-12-20T14:33:04.233Z,1
2018-12-20T14:34:06.368Z,1
2018-12-20T14:35:09.060Z,1
2018-12-20T14:36:11.175Z,1
2018-12-20T14:37:13.309Z,1
2018-12-20T14:38:15.418Z,1
2018-12-20T14:39:17.567Z,1
2018-12-20T14:40:19.693Z,1
2018-12-20T14:41:21.789Z,1
2018-12-20T14:42:24.188Z,1
2018-12-20T14:43:26.297Z,1
2018-12-20T14:44:28.430Z,1
2018-12-20T14:45:30.527Z,0
2018-12-20T14:46:32.653Z,0
2018-12-20T14:47:34.780Z,0
2018-12-20T14:48:40.921Z,0
2018-12-20T14:49:43.335Z,0
2018-12-20T14:50:45.825Z,0
2018-12-20T14:51:47.941Z,0
2018-12-20T14:52:50.443Z,0
2018-12-20T14:53:52.577Z,0
2018-12-20T14:54:54.684Z,0
2018-12-20T14:55:56.811Z,0
2018-12-20T14:56:59.218Z,0
2018-12-20T14:58:01.616Z,0
2018-12-20T14:59:03.737Z,0
2018-12-20T15:00:05.936Z,0
2018-12-20T15:01:08.050Z,0
2018-12-20T15:02:10.170Z,0
2018-12-20T15:03:12.292Z,0
2018-12-20T15:04:14.400Z,0
2018-12-20T15:05:16.551Z,0
2018-12-20T15:06:18.703Z,0
2018-12-20T15:07:20.815Z,0
2018-12-20T15:08:22.932Z,0
2018-12-20T15:09:25.463Z,0
2018-12-20T15:10:27.615Z,0
2018-12-20T15:11:29.733Z,0
2018-12-20T15:12:31.853Z,0
2018-12-20T15:13:34.281Z,0
2018-12-20T15:14:36.395Z,0
2018-12-20T15:15:38.519Z,0
2018-12-20T15:16:40.651Z,0
2018-12-20T15:17:43.071Z,0
2018-12-20T15:18:49.245Z,0
2018-12-20T15:19:51.420Z,0
2018-12-20T15:20:53.549Z,0
2018-12-20T15:21:55.658Z,0
2018-12-20T15:23:00.475Z,0
2018-12-20T15:24:03.319Z,0
2018-12-20T15:25:05.451Z,0
2018-12-20T15:26:07.562Z,0